CheckWX is a tool to help pilots better visualize weather data.  It is not intended as a substitute for an official pre-flight weather briefing.

15:59:10 UTC

KMGE TAF
Dobbins Air Reserve Base Airport
Marietta, Georgia, USA
TAF KMGE 041305Z 0413/0519 10005KT 9999 SCT250 QNH2992INS BECMG 0414/0415 12005KT 9999 FEW035 SCT250 QNH2990INS BECMG 0417/0418 13005KT 9999 VCSH BKN045 BKN250 QNH2990INS BECMG 0418/0419 14005KT 9999 VCTS BKN050CB BKN250 QNH2985INS TEMPO 0420/0424 VRB15G25KT 2400 TSRAGR BR BKN020CB OVC050 BECMG 0500/0501 14005KT 9999 NSW FEW150 SCT250 QNH2985INS BECMG 0514/0515 16005KT 9999 VCSH FEW030 FEW150 SCT250 QNH2990INS BECMG 0517/0518 17010KT 9999 VCTS BKN040CB BKN150 BKN250 QNH2985INS TX33/0421Z TN22/0511Z

Jul-4@
13:00 UTC

Jul-4 @ 13:00 UTC

Jul-4@
14:00 UTC

Jul-4 @ 14:00 UTC

TAF KMGE 041305Z 0413/0519 10005KT 9999 SCT250 QNH2992INS

Expired

Wind
  • 100° at 5 KTS
Cloud Levels
  • Scattered at 25,000' AGL

Jul-4@
14:00 UTC

Jul-4 @ 14:00 UTC

Jul-4@
17:00 UTC

Jul-4 @ 17:00 UTC

BECMG 0414/0415 12005KT 9999 FEW035 SCT250 QNH2990INS

Expired

Wind
  • 120° at 5 KTS
Cloud Levels
  • Few at 3,500' AGL
  • Scattered at 25,000' AGL

Jul-4@
17:00 UTC

Jul-4 @ 17:00 UTC

Jul-4@
18:00 UTC

Jul-4 @ 18:00 UTC

BECMG 0417/0418 13005KT 9999 VCSH BKN045 BKN250 QNH2990INS

Expired

Wind
  • 130° at 5 KTS
Conditions
Area Showers
Cloud Levels
  • Broken at 4,500' AGL
  • Broken at 25,000' AGL

Jul-4@
18:00 UTC

Jul-4 @ 18:00 UTC

Jul-5@
00:00 UTC

Jul-5 @ 00:00 UTC

BECMG 0418/0419 14005KT 9999 VCTS BKN050CB BKN250 QNH2985INS

Expired

Wind
  • 140° at 5 KTS
Conditions
Area Thunderstorm
Cloud Levels
  • Broken at 5,000' AGL
  • Broken at 25,000' AGL

Jul-4@
20:00 UTC

Jul-4 @ 20:00 UTC

Jul-5@
00:00 UTC

Jul-5 @ 00:00 UTC

TEMPO 0420/0424 VRB15G25KT 2400 TSRAGR BR BKN020CB OVC050

Expired

Wind
  • Variable at 15 KTS
  • {Gusting to 25 KTS
Conditions
Thunderstorm, Rain, Thunderstorm, Hail, Mist
Cloud Levels
  • Broken at 2,000' AGL
  • Overcast at 5,000' AGL

Jul-5@
00:00 UTC

Jul-5 @ 00:00 UTC

Jul-5@
14:00 UTC

Jul-5 @ 14:00 UTC

BECMG 0500/0501 14005KT 9999 NSW FEW150 SCT250 QNH2985INS

Expired

Wind
  • 140° at 5 KTS
Conditions
No significant weather
Cloud Levels
  • Few at 15,000' AGL
  • Scattered at 25,000' AGL

Jul-5@
14:00 UTC

Jul-5 @ 14:00 UTC

Jul-5@
17:00 UTC

Jul-5 @ 17:00 UTC

BECMG 0514/0515 16005KT 9999 VCSH FEW030 FEW150 SCT250 QNH2990INS

Becoming

Becoming Conditions expected by Sun, Jul 5, 2020 @ 15:00 UTC

Wind
  • 160° at 5 KTS
Conditions
Area Showers
Cloud Levels
  • Few at 3,000' AGL
  • Few at 15,000' AGL
  • Scattered at 25,000' AGL

Jul-5@
17:00 UTC

Jul-5 @ 17:00 UTC

Jul-5@
19:00 UTC

Jul-5 @ 19:00 UTC

BECMG 0517/0518 17010KT 9999 VCTS BKN040CB BKN150 BKN250 QNH2985INS TX33/0421Z TN22/0511Z

Becoming

Becoming Conditions expected by Sun, Jul 5, 2020 @ 18:00 UTC

Wind
  • 170° at 10 KTS
Conditions
Area Thunderstorm
Cloud Levels
  • Broken at 4,000' AGL
  • Broken at 15,000' AGL
  • Broken at 25,000' AGL